createdAt,value
2022-09-12T00:01:21.837Z,18.70
2022-09-12T00:03:53.276Z,18.70
2022-09-12T00:06:25.440Z,18.70
2022-09-12T00:08:57.378Z,18.60
2022-09-12T00:11:26.085Z,18.60
2022-09-12T00:13:57.537Z,18.60
2022-09-12T00:16:28.008Z,18.60
2022-09-12T00:18:56.641Z,18.50
2022-09-12T00:21:26.750Z,18.40
2022-09-12T00:23:55.339Z,18.40
2022-09-12T00:26:23.915Z,18.40
2022-09-12T00:28:53.038Z,18.50
2022-09-12T00:31:24.071Z,18.50
2022-09-12T00:33:52.909Z,18.50
2022-09-12T00:36:22.916Z,18.50
2022-09-12T00:38:53.532Z,18.50
2022-09-12T00:41:24.314Z,18.50
2022-09-12T00:43:54.504Z,18.50
2022-09-12T00:46:40.047Z,18.50
2022-09-12T00:49:14.521Z,18.50
2022-09-12T00:51:47.543Z,18.50
2022-09-12T00:54:22.521Z,18.50
2022-09-12T00:56:53.084Z,18.40
2022-09-12T00:59:26.386Z,18.40
2022-09-12T01:01:55.777Z,18.30
2022-09-12T01:04:26.374Z,18.40
2022-09-12T01:06:56.984Z,18.30
2022-09-12T01:09:27.238Z,18.30
2022-09-12T01:11:56.944Z,18.30
2022-09-12T01:14:25.911Z,18.30
2022-09-12T01:16:54.348Z,18.20
2022-09-12T01:19:50.743Z,18.20
2022-09-12T01:22:37.774Z,18.20
2022-09-12T01:25:16.105Z,18.20
2022-09-12T01:28:10.236Z,18.10
2022-09-12T01:30:52.803Z,18.10
2022-09-12T01:33:48.390Z,18.20
2022-09-12T01:36:45.964Z,18.10
2022-09-12T01:39:27.577Z,18.10
2022-09-12T01:42:05.895Z,18.10
2022-09-12T01:44:40.419Z,18.10
2022-09-12T01:47:13.232Z,18.10
2022-09-12T01:49:48.522Z,18.10
2022-09-12T01:52:23.780Z,18.00
2022-09-12T01:54:56.365Z,18.00
2022-09-12T01:57:32.831Z,18.00
2022-09-12T02:00:05.964Z,18.00
2022-09-12T02:02:49.117Z,18.00
2022-09-12T02:05:21.811Z,18.00
2022-09-12T02:07:52.926Z,17.90
2022-09-12T02:10:24.340Z,17.90
2022-09-12T02:12:58.447Z,17.90
2022-09-12T02:15:31.602Z,17.90
2022-09-12T02:18:05.870Z,17.90
2022-09-12T02:20:48.033Z,17.90
2022-09-12T02:23:21.650Z,17.90
2022-09-12T02:25:54.378Z,17.90
2022-09-12T02:28:27.617Z,17.80
2022-09-12T02:31:06.652Z,17.80
2022-09-12T02:33:45.377Z,17.80
2022-09-12T02:36:24.556Z,17.80
2022-09-12T02:38:53.157Z,17.80
2022-09-12T02:41:22.477Z,17.80
2022-09-12T02:43:52.904Z,17.80
2022-09-12T02:46:26.053Z,17.80
2022-09-12T02:48:56.605Z,17.80
2022-09-12T02:51:25.208Z,17.80
2022-09-12T02:53:54.428Z,17.80
2022-09-12T02:56:27.202Z,17.70
2022-09-12T02:58:59.969Z,17.70
2022-09-12T03:01:49.822Z,17.70
2022-09-12T03:04:38.168Z,17.70
2022-09-12T03:07:15.252Z,17.60
2022-09-12T03:09:48.276Z,17.60
2022-09-12T03:12:34.100Z,17.60
2022-09-12T03:15:17.051Z,17.50
2022-09-12T03:17:59.313Z,17.50
2022-09-12T03:20:41.801Z,17.40
2022-09-12T03:23:18.569Z,17.40
2022-09-12T03:25:53.028Z,17.30
2022-09-12T03:28:22.860Z,17.30
2022-09-12T03:30:54.835Z,17.30
2022-09-12T03:33:24.636Z,17.30
2022-09-12T03:35:54.792Z,17.30
2022-09-12T03:38:23.049Z,17.30
2022-09-12T03:40:54.678Z,17.30
2022-09-12T03:43:23.362Z,17.20
2022-09-12T03:45:53.356Z,17.20
2022-09-12T03:48:21.827Z,17.20
2022-09-12T03:50:50.067Z,17.30
2022-09-12T03:53:19.692Z,17.30
2022-09-12T03:55:48.070Z,17.30
2022-09-12T03:58:16.322Z,17.30
2022-09-12T04:00:44.581Z,17.20
2022-09-12T04:03:12.864Z,17.20
2022-09-12T04:05:41.205Z,17.10
2022-09-12T04:08:09.657Z,17.10
2022-09-12T04:10:39.343Z,17.00
2022-09-12T04:13:07.781Z,17.00
2022-09-12T04:15:36.023Z,17.00
2022-09-12T04:18:06.151Z,17.00
2022-09-12T04:20:34.744Z,17.00
2022-09-12T04:23:03.077Z,17.00
2022-09-12T04:25:31.449Z,16.90
2022-09-12T04:28:01.103Z,17.00
2022-09-12T04:30:29.449Z,17.00
2022-09-12T04:32:57.922Z,17.00
2022-09-12T04:35:26.884Z,17.00
2022-09-12T04:37:55.132Z,17.00
2022-09-12T04:40:23.447Z,17.00
2022-09-12T04:42:51.725Z,17.00
2022-09-12T04:45:21.715Z,17.00
2022-09-12T04:47:50.075Z,17.00
2022-09-12T04:50:18.708Z,16.90
2022-09-12T04:52:50.911Z,16.90
2022-09-12T04:55:19.398Z,16.80
2022-09-12T04:57:47.658Z,16.80
2022-09-12T05:00:16.431Z,16.80
2022-09-12T05:02:46.489Z,16.70
2022-09-12T05:05:14.779Z,16.70
2022-09-12T05:07:43.109Z,16.70
2022-09-12T05:10:12.727Z,16.70
2022-09-12T05:12:41.034Z,16.80
2022-09-12T05:15:10.497Z,16.90
2022-09-12T05:17:38.814Z,16.90
2022-09-12T05:20:12.850Z,16.90
2022-09-12T05:22:41.141Z,17.00
2022-09-12T05:25:10.684Z,17.00
2022-09-12T05:27:39.167Z,17.00
2022-09-12T05:30:10.043Z,17.00
2022-09-12T05:32:38.326Z,17.00
2022-09-12T05:35:08.881Z,17.00
2022-09-12T05:37:37.372Z,17.00
2022-09-12T05:40:08.612Z,17.10
2022-09-12T05:42:36.992Z,17.20
2022-09-12T05:45:06.161Z,17.30
2022-09-12T05:47:34.860Z,17.40
2022-09-12T05:50:06.335Z,17.50
2022-09-12T05:52:36.085Z,17.50
2022-09-12T05:55:04.988Z,17.60
2022-09-12T05:57:33.772Z,17.80
2022-09-12T06:00:02.239Z,17.90
2022-09-12T06:02:40.293Z,18.30
2022-09-12T06:05:09.160Z,18.50
2022-09-12T06:07:38.802Z,18.70
2022-09-12T06:10:07.880Z,19.00
2022-09-12T06:12:36.267Z,19.90
2022-09-12T06:15:04.923Z,21.10
2022-09-12T06:17:33.411Z,22.00
2022-09-12T06:20:01.899Z,23.00
2022-09-12T06:22:30.290Z,23.70
2022-09-12T06:25:00.012Z,24.30
2022-09-12T06:27:28.358Z,24.80
2022-09-12T06:29:56.760Z,25.10
2022-09-12T06:32:25.248Z,25.60
2022-09-12T06:34:53.498Z,25.90
2022-09-12T06:37:21.752Z,26.10
2022-09-12T06:39:50.078Z,26.30
2022-09-12T06:42:20.097Z,26.30
2022-09-12T06:44:57.652Z,26.80
2022-09-12T06:47:25.975Z,27.20
2022-09-12T06:49:54.285Z,27.20
2022-09-12T06:52:22.687Z,27.20
2022-09-12T06:54:51.044Z,27.00
2022-09-12T06:57:20.726Z,27.20
2022-09-12T06:59:49.024Z,26.90
2022-09-12T07:02:17.498Z,26.80
2022-09-12T07:04:45.910Z,26.70
2022-09-12T07:07:14.717Z,26.90
2022-09-12T07:09:43.252Z,26.80
2022-09-12T07:12:11.494Z,27.40
2022-09-12T07:14:41.662Z,27.60
2022-09-12T07:17:10.007Z,27.70
2022-09-12T07:19:38.356Z,27.90
2022-09-12T07:22:06.770Z,28.00
2022-09-12T07:24:35.067Z,27.90
2022-09-12T07:27:03.341Z,28.10
2022-09-12T07:29:38.770Z,28.30
2022-09-12T07:32:08.912Z,28.20
2022-09-12T07:34:38.223Z,28.30
2022-09-12T07:37:06.710Z,28.50
2022-09-12T07:39:34.953Z,28.70
2022-09-12T07:42:03.273Z,28.70
2022-09-12T07:44:31.646Z,28.70
2022-09-12T07:46:59.963Z,28.50
2022-09-12T07:49:30.552Z,28.40
2022-09-12T07:51:58.867Z,28.30
2022-09-12T07:54:27.738Z,28.20
2022-09-12T07:56:56.037Z,28.20
2022-09-12T07:59:48.418Z,28.30
2022-09-12T08:02:17.576Z,28.50
2022-09-12T08:04:48.822Z,28.50
2022-09-12T08:07:19.472Z,28.50
2022-09-12T08:09:48.265Z,28.40
2022-09-12T08:12:17.812Z,28.50
2022-09-12T08:14:46.121Z,28.50
2022-09-12T08:17:14.479Z,28.40
2022-09-12T08:19:43.048Z,28.30
2022-09-12T08:22:13.249Z,28.40
2022-09-12T08:24:41.782Z,28.40
2022-09-12T08:27:10.730Z,28.30
2022-09-12T08:29:39.207Z,28.30
2022-09-12T08:32:07.561Z,28.00
2022-09-12T08:34:36.194Z,27.90
2022-09-12T08:37:04.526Z,28.00
2022-09-12T08:39:34.332Z,28.20
2022-09-12T08:42:04.931Z,28.00
2022-09-12T08:44:59.947Z,28.00
2022-09-12T08:47:31.618Z,28.10
2022-09-12T08:50:10.743Z,27.50
2022-09-12T08:52:45.112Z,27.30
2022-09-12T08:55:27.594Z,27.20
2022-09-12T08:57:56.151Z,26.90
2022-09-12T09:00:24.868Z,26.90
2022-09-12T09:03:18.938Z,27.00
2022-09-12T09:05:51.739Z,27.20
2022-09-12T09:08:43.067Z,27.20
2022-09-12T09:11:24.283Z,27.00
2022-09-12T09:14:21.680Z,27.20
2022-09-12T09:16:52.944Z,27.20
2022-09-12T09:19:26.719Z,27.20
2022-09-12T09:22:00.151Z,27.30
2022-09-12T09:24:38.083Z,27.10
2022-09-12T09:27:36.918Z,26.90
2022-09-12T09:30:03.345Z,26.90
2022-09-12T09:32:35.532Z,26.80
2022-09-12T09:35:17.005Z,27.00
2022-09-12T09:37:54.532Z,27.20
2022-09-12T09:40:34.094Z,27.30
2022-09-12T09:43:12.079Z,27.20
2022-09-12T09:45:44.604Z,27.10
2022-09-12T09:48:19.593Z,27.00
2022-09-12T09:50:50.128Z,27.00
2022-09-12T09:53:30.623Z,27.20
2022-09-12T09:56:03.362Z,27.40
2022-09-12T09:58:35.195Z,27.20
2022-09-12T10:01:06.020Z,27.00
2022-09-12T10:03:39.060Z,27.10
2022-09-12T10:06:22.761Z,27.00
2022-09-12T10:08:52.200Z,27.10
2022-09-12T10:11:22.964Z,27.20
2022-09-12T10:13:57.942Z,27.50
2022-09-12T10:16:27.985Z,27.50
2022-09-12T10:18:58.353Z,27.50
2022-09-12T10:21:33.277Z,27.40
2022-09-12T10:24:14.377Z,27.40
2022-09-12T10:26:44.392Z,27.40
2022-09-12T10:29:19.165Z,27.30
2022-09-12T10:31:51.767Z,27.30
2022-09-12T10:34:30.572Z,27.20
2022-09-12T10:37:05.250Z,27.10
2022-09-12T10:39:34.896Z,27.20
2022-09-12T10:42:03.748Z,27.20
2022-09-12T10:44:35.549Z,27.30
2022-09-12T10:47:22.627Z,27.20
2022-09-12T10:49:51.021Z,27.10
2022-09-12T10:52:24.222Z,27.10
2022-09-12T10:54:52.814Z,27.00
2022-09-12T10:57:47.682Z,26.90
2022-09-12T11:00:27.566Z,26.80
2022-09-12T11:03:06.935Z,26.80
2022-09-12T11:05:46.982Z,26.80
2022-09-12T11:08:30.215Z,26.80
2022-09-12T11:11:07.743Z,26.80
2022-09-12T11:13:52.875Z,27.00
2022-09-12T11:16:31.060Z,27.20
2022-09-12T11:19:11.915Z,27.20
2022-09-12T11:21:51.759Z,27.20
2022-09-12T11:24:45.648Z,27.30
2022-09-12T11:27:29.300Z,27.40
2022-09-12T11:30:00.980Z,27.60
2022-09-12T11:32:53.356Z,27.60
2022-09-12T11:35:26.205Z,27.60
2022-09-12T11:38:15.397Z,27.50
2022-09-12T11:40:50.717Z,27.50
2022-09-12T11:43:27.285Z,27.40
2022-09-12T11:45:56.955Z,27.40
2022-09-12T11:48:35.894Z,27.40
2022-09-12T11:51:07.580Z,27.60
2022-09-12T11:53:40.007Z,27.70
2022-09-12T11:56:14.838Z,27.80
2022-09-12T11:58:45.961Z,27.60
2022-09-12T12:01:20.916Z,27.70
2022-09-12T12:03:52.609Z,27.80
2022-09-12T12:06:25.823Z,28.00
2022-09-12T12:08:54.785Z,28.00
2022-09-12T12:11:32.523Z,28.00
2022-09-12T12:14:04.648Z,28.10
2022-09-12T12:16:35.797Z,27.90
2022-09-12T12:19:11.026Z,27.80
2022-09-12T12:21:42.287Z,27.60
2022-09-12T12:24:20.462Z,27.50
2022-09-12T12:27:01.280Z,27.50
2022-09-12T12:29:44.700Z,27.40
2022-09-12T12:32:26.849Z,27.50
2022-09-12T12:35:40.431Z,27.60
2022-09-12T12:38:30.502Z,27.70
2022-09-12T12:41:31.981Z,27.80
2022-09-12T12:44:37.803Z,27.80
2022-09-12T12:47:18.908Z,27.70
2022-09-12T12:49:53.150Z,27.80
2022-09-12T12:52:21.847Z,27.80
2022-09-12T12:54:54.013Z,27.70
2022-09-12T12:57:49.896Z,27.60
2022-09-12T13:00:32.129Z,27.80
2022-09-12T13:03:05.771Z,28.00
2022-09-12T13:05:41.755Z,28.10
2022-09-12T13:08:26.545Z,28.10
2022-09-12T13:10:59.047Z,28.10
2022-09-12T13:13:32.534Z,28.20
2022-09-12T13:16:00.929Z,28.20
2022-09-12T13:18:34.929Z,28.10
2022-09-12T13:21:11.280Z,28.30
2022-09-12T13:23:39.981Z,28.30
2022-09-12T13:26:13.416Z,28.20
2022-09-12T13:28:41.986Z,28.30
2022-09-12T13:31:17.508Z,28.40
2022-09-12T13:33:50.827Z,28.30
2022-09-12T13:36:40.989Z,28.20
2022-09-12T13:39:20.226Z,28.20
2022-09-12T13:42:20.779Z,28.20
2022-09-12T13:44:51.950Z,28.30
2022-09-12T13:47:27.284Z,28.40
2022-09-12T13:49:58.456Z,28.40
2022-09-12T13:52:30.256Z,28.40
2022-09-12T13:55:00.524Z,28.50
2022-09-12T13:57:34.752Z,28.50
2022-09-12T14:00:08.872Z,28.50
2022-09-12T14:02:38.177Z,28.60
2022-09-12T14:05:20.134Z,28.60
2022-09-12T14:07:56.362Z,28.60
2022-09-12T14:10:31.915Z,28.70
2022-09-12T14:13:02.144Z,28.60
2022-09-12T14:15:32.770Z,28.50
2022-09-12T14:18:04.226Z,28.40
2022-09-12T14:20:38.612Z,28.40
2022-09-12T14:23:27.509Z,28.30
2022-09-12T14:25:57.412Z,28.30
2022-09-12T14:28:28.366Z,28.40
2022-09-12T14:31:02.112Z,28.50
2022-09-12T14:33:34.831Z,28.50
2022-09-12T14:36:13.323Z,28.50
2022-09-12T14:38:44.179Z,28.40
2022-09-12T14:41:15.725Z,28.40
2022-09-12T14:43:47.448Z,28.40
2022-09-12T14:46:20.471Z,28.40
2022-09-12T14:48:52.644Z,28.50
2022-09-12T14:51:26.107Z,28.50
2022-09-12T14:53:54.800Z,28.50
2022-09-12T14:56:37.845Z,28.40
2022-09-12T14:59:28.433Z,28.40
2022-09-12T15:02:26.447Z,28.30
2022-09-12T15:05:15.351Z,28.30
2022-09-12T15:07:53.768Z,28.30
2022-09-12T15:10:25.627Z,28.30
2022-09-12T15:13:16.869Z,28.40
2022-09-12T15:15:47.234Z,28.40
2022-09-12T15:18:16.158Z,28.50
2022-09-12T15:20:46.302Z,28.40
2022-09-12T15:23:31.133Z,28.40
2022-09-12T15:25:59.766Z,28.50
2022-09-12T15:28:29.116Z,28.40
2022-09-12T15:30:59.016Z,28.40
2022-09-12T15:33:27.403Z,28.40
2022-09-12T15:35:55.756Z,28.50
2022-09-12T15:38:26.692Z,28.40
2022-09-12T15:40:57.413Z,28.40
2022-09-12T15:43:26.307Z,28.40
2022-09-12T15:45:54.694Z,28.40
2022-09-12T15:48:23.625Z,28.30
2022-09-12T15:50:51.917Z,28.30
2022-09-12T15:53:20.350Z,28.30
2022-09-12T15:55:50.176Z,28.20
2022-09-12T15:58:19.327Z,28.20
2022-09-12T16:00:47.692Z,28.20
2022-09-12T16:03:23.399Z,28.20
2022-09-12T16:05:52.130Z,28.10
2022-09-12T16:08:20.488Z,28.10
2022-09-12T16:10:54.109Z,28.10
2022-09-12T16:13:22.508Z,28.10
2022-09-12T16:15:51.052Z,28.10
2022-09-12T16:18:19.715Z,28.10
2022-09-12T16:20:48.084Z,28.10
2022-09-12T16:23:16.477Z,28.10
2022-09-12T16:25:44.897Z,28.00
2022-09-12T16:28:14.819Z,28.00
2022-09-12T16:30:43.471Z,27.90
2022-09-12T16:33:13.674Z,27.90
2022-09-12T16:35:42.188Z,27.90
2022-09-12T16:38:10.586Z,27.90
2022-09-12T16:40:38.984Z,27.80
2022-09-12T16:43:07.268Z,27.70
2022-09-12T16:45:37.031Z,27.70
2022-09-12T16:48:05.588Z,27.50
2022-09-12T16:50:34.871Z,27.50
2022-09-12T16:53:03.344Z,27.50
2022-09-12T16:55:32.547Z,27.40
2022-09-12T16:58:00.927Z,27.40
2022-09-12T17:00:29.514Z,27.40
2022-09-12T17:03:00.418Z,27.30
2022-09-12T17:05:29.600Z,27.30
2022-09-12T17:07:57.912Z,27.30
2022-09-12T17:10:27.363Z,27.20
2022-09-12T17:12:55.787Z,27.20
2022-09-12T17:15:24.081Z,27.20
2022-09-12T17:17:52.608Z,27.20
2022-09-12T17:20:22.533Z,27.20
2022-09-12T17:22:50.863Z,27.10
2022-09-12T17:25:19.164Z,27.10
2022-09-12T17:27:47.408Z,27.00
2022-09-12T17:30:15.927Z,27.00
2022-09-12T17:32:44.288Z,26.90
2022-09-12T17:35:13.363Z,26.80
2022-09-12T17:37:43.081Z,26.80
2022-09-12T17:40:12.175Z,26.70
2022-09-12T17:42:40.936Z,26.50
2022-09-12T17:45:13.955Z,26.40
2022-09-12T17:47:44.680Z,26.30
2022-09-12T17:50:30.983Z,26.10
2022-09-12T17:53:02.152Z,26.10
2022-09-12T17:55:32.125Z,25.90
2022-09-12T17:58:01.259Z,25.80
2022-09-12T18:00:43.549Z,25.70
2022-09-12T18:03:11.962Z,25.60
2022-09-12T18:05:46.808Z,25.50
2022-09-12T18:08:16.639Z,25.40
2022-09-12T18:10:45.039Z,25.30
2022-09-12T18:13:13.527Z,25.30
2022-09-12T18:15:42.010Z,25.20
2022-09-12T18:18:10.550Z,25.10
2022-09-12T18:20:38.770Z,25.10
2022-09-12T18:23:07.004Z,25.10
2022-09-12T18:25:36.646Z,25.00
2022-09-12T18:28:09.220Z,24.90
2022-09-12T18:30:37.628Z,24.90
2022-09-12T18:33:05.984Z,24.80
2022-09-12T18:35:34.216Z,24.80
2022-09-12T18:38:02.436Z,24.80
2022-09-12T18:40:30.639Z,24.70
2022-09-12T18:43:00.369Z,24.60
2022-09-12T18:45:28.657Z,24.60
2022-09-12T18:47:56.993Z,24.60
2022-09-12T18:50:25.397Z,24.60
2022-09-12T18:52:56.722Z,24.60
2022-09-12T18:55:27.854Z,24.50
2022-09-12T18:57:56.635Z,24.50
2022-09-12T19:00:26.872Z,24.50
2022-09-12T19:02:55.324Z,24.50
2022-09-12T19:05:23.642Z,24.40
2022-09-12T19:07:51.907Z,24.30
2022-09-12T19:10:20.157Z,24.30
2022-09-12T19:12:48.539Z,24.30
2022-09-12T19:15:16.880Z,24.20
2022-09-12T19:17:46.557Z,24.20
2022-09-12T19:20:14.832Z,24.20
2022-09-12T19:22:43.907Z,24.20
2022-09-12T19:25:12.492Z,24.20
2022-09-12T19:27:40.813Z,24.10
2022-09-12T19:30:10.221Z,24.10
2022-09-12T19:32:38.429Z,24.00
2022-09-12T19:35:08.864Z,24.00
2022-09-12T19:37:37.162Z,23.90
2022-09-12T19:40:06.900Z,23.80
2022-09-12T19:42:35.340Z,23.70
2022-09-12T19:45:03.616Z,23.60
2022-09-12T19:47:31.881Z,23.60
2022-09-12T19:50:00.157Z,23.50
2022-09-12T19:52:29.841Z,23.50
2022-09-12T19:54:58.275Z,23.40
2022-09-12T19:57:26.504Z,23.30
2022-09-12T19:59:55.511Z,23.20
2022-09-12T20:02:25.658Z,23.10
2022-09-12T20:04:54.035Z,22.90
2022-09-12T20:07:22.433Z,22.80
2022-09-12T20:09:52.030Z,22.80
2022-09-12T20:12:20.339Z,22.70
2022-09-12T20:14:48.719Z,22.70
2022-09-12T20:17:17.175Z,22.70
2022-09-12T20:19:45.443Z,22.70
2022-09-12T20:22:13.711Z,22.60
2022-09-12T20:24:42.130Z,22.60
2022-09-12T20:27:11.925Z,22.60
2022-09-12T20:29:40.284Z,22.50
2022-09-12T20:32:08.666Z,22.40
2022-09-12T20:34:37.123Z,22.40
2022-09-12T20:37:05.544Z,22.30
2022-09-12T20:39:34.468Z,22.20
2022-09-12T20:42:02.906Z,22.20
2022-09-12T20:44:32.550Z,22.10
2022-09-12T20:47:00.886Z,22.10
2022-09-12T20:49:29.203Z,22.00
2022-09-12T20:51:57.498Z,22.00
2022-09-12T20:54:25.961Z,21.90
2022-09-12T20:56:54.275Z,21.90
2022-09-12T20:59:22.747Z,21.90
2022-09-12T21:01:52.407Z,21.80
2022-09-12T21:04:20.742Z,21.80
2022-09-12T21:06:49.110Z,21.80
2022-09-12T21:09:17.431Z,21.70
2022-09-12T21:11:45.796Z,21.70
2022-09-12T21:14:14.558Z,21.70
2022-09-12T21:16:42.841Z,21.50
2022-09-12T21:19:12.458Z,21.40
2022-09-12T21:21:40.780Z,21.30
2022-09-12T21:24:09.096Z,21.20
2022-09-12T21:26:37.460Z,21.20
2022-09-12T21:29:06.317Z,21.10
2022-09-12T21:31:34.610Z,21.10
2022-09-12T21:34:03.069Z,21.10
2022-09-12T21:36:32.775Z,21.10
2022-09-12T21:39:01.107Z,21.00
2022-09-12T21:41:29.609Z,21.00
2022-09-12T21:43:57.821Z,21.00
2022-09-12T21:46:26.092Z,20.90
2022-09-12T21:48:54.378Z,20.90
2022-09-12T21:51:22.590Z,20.90
2022-09-12T21:53:52.163Z,20.90
2022-09-12T21:56:20.929Z,20.80
2022-09-12T21:58:49.283Z,20.70
2022-09-12T22:01:17.585Z,20.70
2022-09-12T22:03:45.978Z,20.60
2022-09-12T22:06:16.385Z,20.60
2022-09-12T22:08:46.285Z,20.60
2022-09-12T22:11:16.048Z,20.60
2022-09-12T22:13:44.367Z,20.60
2022-09-12T22:16:13.252Z,20.60
2022-09-12T22:18:42.948Z,20.60
2022-09-12T22:21:15.093Z,20.60
2022-09-12T22:24:01.122Z,20.60
2022-09-12T22:26:32.216Z,20.70
2022-09-12T22:29:00.973Z,20.60
2022-09-12T22:31:29.524Z,20.60
2022-09-12T22:33:58.575Z,20.60
2022-09-12T22:36:30.968Z,20.50
2022-09-12T22:39:00.091Z,20.50
2022-09-12T22:41:30.017Z,20.40
2022-09-12T22:43:58.466Z,20.40
2022-09-12T22:46:27.598Z,20.40
2022-09-12T22:48:56.660Z,20.40
2022-09-12T22:51:25.401Z,20.40
2022-09-12T22:53:53.801Z,20.40
2022-09-12T22:56:22.568Z,20.40
2022-09-12T22:58:52.797Z,20.30
2022-09-12T23:01:21.366Z,20.10
2022-09-12T23:03:49.781Z,20.10
2022-09-12T23:06:19.018Z,20.00
2022-09-12T23:08:47.453Z,19.90
2022-09-12T23:11:18.604Z,19.90
2022-09-12T23:13:48.516Z,19.90
2022-09-12T23:16:20.536Z,19.80
2022-09-12T23:18:49.674Z,19.90
2022-09-12T23:21:20.454Z,19.90
2022-09-12T23:23:48.804Z,19.80
2022-09-12T23:26:18.821Z,19.80
2022-09-12T23:28:50.465Z,19.80
2022-09-12T23:31:20.644Z,19.70
2022-09-12T23:33:49.534Z,19.70
2022-09-12T23:36:17.844Z,19.60
2022-09-12T23:38:47.700Z,19.60
2022-09-12T23:41:17.416Z,19.50
2022-09-12T23:43:46.118Z,19.50
2022-09-12T23:46:15.362Z,19.50
2022-09-12T23:48:45.756Z,19.40
2022-09-12T23:51:14.245Z,19.40
2022-09-12T23:53:42.966Z,19.40
2022-09-12T23:56:11.553Z,19.40
2022-09-12T23:58:39.861Z,19.40
